createdAt,value
2022-11-05T12:01:45.649Z,98.20
2022-11-05T12:04:00.872Z,94.50
2022-11-05T12:05:38.776Z,92.50
2022-11-05T12:07:36.879Z,90.25
2022-11-05T12:09:47.540Z,85.00
2022-11-05T12:11:43.545Z,81.50
2022-11-05T12:13:21.452Z,78.50
2022-11-05T12:15:09.908Z,82.00
2022-11-05T12:17:03.725Z,81.25
2022-11-05T12:18:50.487Z,85.75
2022-11-05T12:20:30.155Z,75.75
2022-11-05T12:22:07.565Z,75.00
2022-11-05T12:23:43.560Z,74.50
2022-11-05T12:25:40.555Z,72.25
2022-11-05T12:27:59.709Z,71.00
2022-11-05T12:29:35.965Z,69.75
2022-11-05T12:31:43.546Z,88.25
2022-11-05T12:33:22.271Z,70.25
2022-11-05T12:37:22.772Z,67.50
2022-11-05T12:39:24.269Z,53.00
2022-11-05T12:41:11.069Z,59.25
2022-11-05T12:43:07.750Z,54.25
2022-11-05T12:45:00.825Z,58.50
2022-11-05T12:46:48.181Z,61.50
2022-11-05T12:48:46.365Z,62.00
2022-11-05T12:50:23.030Z,73.25
2022-11-05T12:52:06.477Z,72.75
2022-11-05T12:54:03.147Z,71.25
2022-11-05T12:55:41.705Z,83.50
2022-11-05T12:57:16.145Z,83.25
2022-11-05T12:59:01.941Z,81.50
2022-11-05T13:00:33.741Z,81.00
2022-11-05T13:02:28.749Z,84.25
2022-11-05T13:04:08.948Z,86.25
2022-11-05T13:05:42.207Z,78.75
2022-11-05T13:07:15.630Z,79.75
2022-11-05T13:08:52.971Z,97.25
2022-11-05T13:10:41.166Z,94.00
2022-11-05T13:12:17.523Z,88.50
2022-11-05T13:14:20.203Z,104.20
2022-11-05T13:16:04.510Z,95.25
2022-11-05T13:17:43.637Z,99.75
2022-11-05T13:19:32.273Z,103.60
2022-11-05T13:21:05.563Z,104.25
2022-11-05T13:22:48.123Z,93.25
2022-11-05T13:24:25.234Z,110.20
2022-11-05T13:26:03.307Z,109.40
2022-11-05T13:27:58.223Z,111.40
2022-11-05T13:29:41.314Z,116.40
2022-11-05T13:31:18.001Z,125.50
2022-11-05T13:32:56.086Z,124.50
2022-11-05T13:34:29.473Z,128.00
2022-11-05T13:36:28.888Z,140.50
2022-11-05T13:38:23.268Z,136.00
2022-11-05T13:39:58.972Z,135.75
2022-11-05T13:41:40.765Z,135.50
2022-11-05T13:43:24.067Z,133.50
2022-11-05T13:45:01.468Z,132.00
2022-11-05T13:47:08.325Z,128.25
2022-11-05T13:49:02.613Z,134.00
2022-11-05T13:50:46.128Z,128.25
2022-11-05T13:52:40.218Z,116.25
2022-11-05T13:54:35.620Z,106.40
2022-11-05T13:56:28.377Z,111.80
2022-11-05T13:58:14.915Z,114.80
2022-11-05T14:00:24.675Z,105.40
2022-11-05T14:02:00.521Z,109.60
2022-11-05T14:03:32.754Z,105.20
2022-11-05T14:05:05.151Z,112.80
2022-11-05T14:06:37.368Z,105.20
2022-11-05T14:08:11.589Z,106.00
2022-11-05T14:09:44.004Z,92.50
2022-11-05T14:11:16.042Z,101.40
2022-11-05T14:12:50.719Z,104.75
2022-11-05T14:14:30.688Z,90.25
2022-11-05T14:16:08.047Z,99.75
2022-11-05T14:18:00.559Z,88.50
2022-11-05T14:19:37.100Z,87.50
2022-11-05T14:21:30.673Z,96.00
2022-11-05T14:23:21.135Z,90.50
2022-11-05T14:24:53.572Z,86.00
2022-11-05T14:26:29.639Z,87.25
2022-11-05T14:28:01.417Z,86.50
2022-11-05T14:29:46.415Z,81.50
2022-11-05T14:31:18.244Z,79.00
2022-11-05T14:32:51.079Z,80.50
2022-11-05T14:34:41.224Z,77.75
2022-11-05T14:36:22.415Z,75.75
2022-11-05T14:37:58.825Z,75.00
2022-11-05T14:39:31.026Z,66.00
2022-11-05T14:41:02.919Z,66.25
2022-11-05T14:42:34.801Z,73.00
2022-11-05T14:44:06.832Z,69.75
2022-11-05T14:45:39.591Z,76.25
2022-11-05T14:47:19.897Z,79.50
2022-11-05T14:49:05.129Z,87.00
2022-11-05T14:50:41.805Z,93.00
2022-11-05T14:52:13.815Z,87.00
2022-11-05T14:53:45.472Z,93.50
2022-11-05T14:55:36.641Z,100.50
2022-11-05T14:57:33.540Z,106.75
2022-11-05T14:59:34.964Z,105.50
2022-11-05T15:01:27.443Z,110.00
2022-11-05T15:03:01.583Z,106.40
2022-11-05T15:04:35.932Z,104.20
2022-11-05T15:06:28.769Z,109.40
2022-11-05T15:08:00.990Z,112.20
2022-11-05T15:09:35.447Z,108.00
2022-11-05T15:11:18.749Z,112.20
2022-11-05T15:13:02.270Z,107.40
2022-11-05T15:15:01.089Z,118.00
2022-11-05T15:16:49.227Z,116.40
2022-11-05T15:18:33.637Z,114.40
2022-11-05T15:20:17.994Z,113.60
2022-11-05T15:21:50.305Z,106.80
2022-11-05T15:23:24.793Z,105.80
2022-11-05T15:24:56.841Z,107.40
2022-11-05T15:26:40.564Z,100.00
2022-11-05T15:28:41.439Z,105.75
2022-11-05T15:30:21.642Z,101.00
2022-11-05T15:31:53.340Z,98.50
2022-11-05T15:33:25.061Z,103.75
2022-11-05T15:34:56.853Z,99.00
2022-11-05T15:36:30.358Z,107.80
2022-11-05T15:38:02.839Z,112.60
2022-11-05T15:39:47.753Z,113.40
2022-11-05T15:41:34.566Z,118.25
2022-11-05T15:43:17.479Z,239.67
2022-11-05T15:44:50.821Z,239.33
2022-11-05T15:46:30.148Z,240.67
2022-11-05T15:48:01.985Z,241.67
2022-11-05T15:49:33.798Z,230.33
2022-11-05T15:51:05.695Z,167.00
2022-11-05T15:52:47.905Z,172.50
2022-11-05T15:54:35.449Z,158.50
2022-11-05T15:56:24.213Z,156.00
2022-11-05T15:58:06.973Z,162.75
2022-11-05T15:59:38.690Z,148.25
2022-11-05T16:01:22.637Z,134.75
2022-11-05T16:02:59.703Z,132.75
2022-11-05T16:04:33.163Z,121.25
2022-11-05T16:06:07.210Z,127.00
2022-11-05T16:07:43.961Z,120.25
2022-11-05T16:09:32.271Z,122.00
2022-11-05T16:11:04.160Z,133.25
2022-11-05T16:12:36.995Z,128.00
2022-11-05T16:14:16.441Z,127.75
2022-11-05T16:15:55.820Z,124.25
2022-11-05T16:17:31.672Z,133.00
2022-11-05T16:19:40.083Z,126.75
2022-11-05T16:21:18.281Z,137.50
2022-11-05T16:22:52.182Z,122.25
2022-11-05T16:24:29.213Z,117.75
2022-11-05T16:26:01.595Z,123.50
2022-11-05T16:27:33.422Z,113.25
2022-11-05T16:29:15.450Z,125.75
2022-11-05T16:31:01.315Z,116.80
2022-11-05T16:32:33.052Z,118.50
2022-11-05T16:34:04.864Z,121.25
2022-11-05T16:35:38.905Z,116.75
2022-11-05T16:37:12.808Z,105.00
2022-11-05T16:38:44.767Z,116.40
2022-11-05T16:40:24.194Z,101.00
2022-11-05T16:41:56.188Z,109.60
2022-11-05T16:43:28.402Z,102.20
2022-11-05T16:45:00.193Z,108.60
2022-11-05T16:46:32.657Z,97.00
2022-11-05T16:48:04.819Z,84.25
2022-11-05T16:49:38.641Z,94.00
2022-11-05T16:51:12.944Z,97.75
2022-11-05T16:52:45.890Z,89.25
2022-11-05T16:54:17.684Z,90.50
2022-11-05T16:55:49.468Z,98.75
2022-11-05T16:57:31.112Z,126.25
2022-11-05T16:59:03.036Z,114.50
2022-11-05T17:00:35.166Z,104.00
2022-11-05T17:02:10.850Z,94.50
2022-11-05T17:03:42.936Z,97.00
2022-11-05T17:05:32.463Z,104.40
2022-11-05T17:07:04.755Z,104.80
2022-11-05T17:08:36.580Z,114.60
2022-11-05T17:10:08.520Z,114.00
2022-11-05T17:11:40.509Z,108.20
2022-11-05T17:13:17.098Z,109.00
2022-11-05T17:14:49.010Z,108.00
2022-11-05T17:16:20.906Z,110.40
2022-11-05T17:17:53.248Z,110.80
2022-11-05T17:19:25.057Z,116.80
2022-11-05T17:20:57.271Z,110.60
2022-11-05T17:22:29.363Z,111.60
2022-11-05T17:24:01.695Z,111.00
2022-11-05T17:25:33.821Z,112.00
2022-11-05T17:27:05.732Z,112.00
2022-11-05T17:28:37.909Z,109.00
2022-11-05T17:30:10.821Z,102.80
2022-11-05T17:31:42.528Z,99.80
2022-11-05T17:33:14.947Z,116.20
2022-11-05T17:34:46.835Z,109.80
2022-11-05T17:36:18.470Z,166.25
2022-11-05T17:37:50.422Z,119.00
2022-11-05T17:39:24.906Z,115.00
2022-11-05T17:40:59.118Z,121.75
2022-11-05T17:42:30.823Z,123.25
2022-11-05T17:44:02.573Z,129.00
2022-11-05T17:45:34.632Z,125.75
2022-11-05T17:47:06.381Z,138.25
2022-11-05T17:48:38.387Z,142.00
2022-11-05T17:50:11.251Z,122.75
2022-11-05T17:51:42.901Z,120.00
2022-11-05T17:53:15.424Z,134.25
2022-11-05T17:54:47.275Z,130.25
2022-11-05T17:56:30.540Z,122.50
2022-11-05T17:58:05.477Z,110.00
2022-11-05T17:59:37.332Z,114.00
2022-11-05T18:01:09.550Z,104.80
2022-11-05T18:02:41.379Z,104.60
2022-11-05T18:04:13.128Z,111.40
2022-11-05T18:05:45.033Z,112.60
2022-11-05T18:07:16.952Z,101.80
2022-11-05T18:08:48.787Z,103.40
2022-11-05T18:10:20.583Z,106.25
2022-11-05T18:11:52.238Z,106.00
2022-11-05T18:13:24.557Z,97.80
2022-11-05T18:14:56.276Z,102.80
2022-11-05T18:16:28.055Z,108.60
2022-11-05T18:17:59.757Z,95.80
2022-11-05T18:19:31.607Z,109.60
2022-11-05T18:21:03.360Z,102.50
2022-11-05T18:22:36.342Z,109.00
2022-11-05T18:24:08.136Z,113.40
2022-11-05T18:25:40.832Z,109.75
2022-11-05T18:27:12.709Z,108.00
2022-11-05T18:28:44.472Z,123.50
2022-11-05T18:30:16.248Z,226.67
2022-11-05T18:31:48.438Z,310.50
2022-11-05T18:33:20.242Z,298.75
2022-11-05T18:34:52.006Z,209.33
2022-11-05T18:36:28.201Z,194.00
2022-11-05T18:37:59.883Z,187.75
2022-11-05T18:39:31.581Z,177.50
2022-11-05T18:41:06.746Z,161.75
2022-11-05T18:42:38.546Z,171.50
2022-11-05T18:44:15.058Z,164.25
2022-11-05T18:45:54.777Z,166.00
2022-11-05T18:47:26.418Z,166.75
2022-11-05T18:48:59.159Z,149.50
2022-11-05T18:50:30.993Z,133.75
2022-11-05T18:52:03.370Z,145.75
2022-11-05T18:53:35.063Z,153.75
2022-11-05T18:55:07.411Z,145.25
2022-11-05T18:56:45.808Z,145.00
2022-11-05T18:58:18.404Z,137.25
2022-11-05T18:59:50.265Z,137.00
2022-11-05T19:01:26.676Z,130.25
2022-11-05T19:02:59.026Z,128.75
2022-11-05T19:04:31.561Z,121.00
2022-11-05T19:06:04.304Z,129.00
2022-11-05T19:07:37.485Z,139.50
2022-11-05T19:09:12.370Z,135.50
2022-11-05T19:10:49.744Z,145.75
2022-11-05T19:12:21.613Z,136.75
2022-11-05T19:13:53.447Z,128.75
2022-11-05T19:15:25.174Z,139.50
2022-11-05T19:16:57.648Z,140.25
2022-11-05T19:18:29.370Z,131.25
2022-11-05T19:20:01.233Z,144.25
2022-11-05T19:21:33.999Z,127.25
2022-11-05T19:23:06.494Z,130.75
2022-11-05T19:24:38.678Z,149.00
2022-11-05T19:26:18.365Z,137.00
2022-11-05T19:27:50.121Z,147.00
2022-11-05T19:29:22.121Z,159.00
2022-11-05T19:30:53.820Z,152.00
2022-11-05T19:32:26.399Z,153.25
2022-11-05T19:33:58.213Z,157.50
2022-11-05T19:35:30.727Z,155.50
2022-11-05T19:37:03.015Z,148.50
2022-11-05T19:38:34.927Z,165.50
2022-11-05T19:40:07.534Z,155.25
2022-11-05T19:41:39.333Z,158.75
2022-11-05T19:43:11.264Z,145.25
2022-11-05T19:44:43.824Z,156.75
2022-11-05T19:46:19.204Z,152.00
2022-11-05T19:47:50.916Z,168.75
2022-11-05T19:49:23.273Z,157.00
2022-11-05T19:50:55.549Z,165.25
2022-11-05T19:52:27.299Z,151.25
2022-11-05T19:54:00.544Z,166.75
2022-11-05T19:55:32.384Z,162.00
2022-11-05T19:57:04.240Z,166.00
2022-11-05T19:58:35.915Z,153.00
2022-11-05T20:00:08.300Z,159.75
2022-11-05T20:01:42.589Z,174.75
2022-11-05T20:03:14.713Z,161.50
2022-11-05T20:04:46.790Z,161.75
2022-11-05T20:06:32.132Z,155.50
2022-11-05T20:08:04.320Z,141.50
2022-11-05T20:09:35.982Z,153.75
2022-11-05T20:11:07.731Z,148.50
2022-11-05T20:12:39.472Z,159.75
2022-11-05T20:14:11.301Z,146.25
2022-11-05T20:15:42.985Z,175.50
2022-11-05T20:17:14.943Z,199.00
2022-11-05T20:18:46.688Z,160.00
2022-11-05T20:20:18.967Z,161.50
2022-11-05T20:21:50.723Z,168.25
2022-11-05T20:23:22.430Z,150.00
2022-11-05T20:24:54.198Z,163.50
2022-11-05T20:26:26.703Z,150.00
2022-11-05T20:27:58.484Z,143.75
2022-11-05T20:29:35.322Z,155.50
2022-11-05T20:31:11.718Z,151.00
2022-11-05T20:32:43.406Z,144.75
2022-11-05T20:34:15.762Z,138.75
2022-11-05T20:35:48.618Z,139.00
2022-11-05T20:37:20.760Z,143.25
2022-11-05T20:38:55.399Z,136.00
2022-11-05T20:40:27.750Z,149.00
2022-11-05T20:42:00.610Z,148.75
2022-11-05T20:43:32.626Z,144.00
2022-11-05T20:45:04.924Z,144.25
2022-11-05T20:46:36.718Z,154.25
2022-11-05T20:48:08.344Z,156.50
2022-11-05T20:49:40.060Z,144.50
2022-11-05T20:51:14.125Z,149.50
2022-11-05T20:52:45.830Z,147.75
2022-11-05T20:54:18.238Z,132.00
2022-11-05T20:55:50.085Z,142.25
2022-11-05T20:57:22.406Z,155.00
2022-11-05T20:58:54.571Z,154.25
2022-11-05T21:00:26.284Z,148.75
2022-11-05T21:01:58.065Z,143.75
2022-11-05T21:03:29.893Z,148.50
2022-11-05T21:05:02.407Z,141.25
2022-11-05T21:06:35.908Z,145.75
2022-11-05T21:08:07.606Z,145.50
2022-11-05T21:09:39.358Z,151.25
2022-11-05T21:11:11.292Z,138.50
2022-11-05T21:12:43.052Z,141.50
2022-11-05T21:14:14.781Z,152.00
2022-11-05T21:15:50.734Z,146.25
2022-11-05T21:17:22.429Z,124.50
2022-11-05T21:18:54.141Z,128.50
2022-11-05T21:20:25.923Z,153.50
2022-11-05T21:21:57.627Z,145.50
2022-11-05T21:23:29.338Z,143.00
2022-11-05T21:25:01.049Z,140.25
2022-11-05T21:26:33.669Z,151.50
2022-11-05T21:28:06.234Z,144.75
2022-11-05T21:29:37.937Z,156.25
2022-11-05T21:31:09.865Z,141.25
2022-11-05T21:32:41.574Z,146.00
2022-11-05T21:34:13.355Z,147.75
2022-11-05T21:35:46.607Z,151.75
2022-11-05T21:37:18.255Z,139.25
2022-11-05T21:38:49.938Z,146.25
2022-11-05T21:40:21.887Z,147.00
2022-11-05T21:41:54.144Z,148.25
2022-11-05T21:43:25.851Z,141.75
2022-11-05T21:45:00.392Z,153.75
2022-11-05T21:46:32.554Z,143.25
2022-11-05T21:48:04.492Z,136.25
2022-11-05T21:49:36.327Z,156.75
2022-11-05T21:51:28.710Z,146.75
2022-11-05T21:53:19.091Z,148.25
2022-11-05T21:55:09.203Z,147.75
2022-11-05T21:56:59.501Z,148.75
2022-11-05T21:58:49.814Z,150.75
2022-11-05T22:00:21.615Z,153.75
2022-11-05T22:02:01.373Z,150.75
2022-11-05T22:03:33.417Z,147.75
2022-11-05T22:05:05.737Z,150.00
2022-11-05T22:06:37.459Z,151.75
2022-11-05T22:08:09.536Z,150.00
2022-11-05T22:09:41.464Z,145.00
2022-11-05T22:11:13.118Z,141.75
2022-11-05T22:12:45.217Z,144.50
2022-11-05T22:14:16.951Z,142.00
2022-11-05T22:15:55.669Z,130.50
2022-11-05T22:17:27.382Z,138.25
2022-11-05T22:18:59.226Z,140.75
2022-11-05T22:20:30.882Z,134.50
2022-11-05T22:22:03.806Z,137.50
2022-11-05T22:23:35.532Z,130.25
2022-11-05T22:25:09.469Z,131.75
2022-11-05T22:26:41.938Z,153.00
2022-11-05T22:28:13.937Z,139.75
2022-11-05T22:29:46.225Z,127.75
2022-11-05T22:31:17.896Z,132.25
2022-11-05T22:32:49.851Z,123.75
2022-11-05T22:34:21.853Z,122.00
2022-11-05T22:35:53.955Z,131.50
2022-11-05T22:37:25.872Z,119.00
2022-11-05T22:38:57.611Z,121.75
2022-11-05T22:40:29.275Z,121.50
2022-11-05T22:42:05.588Z,131.25
2022-11-05T22:43:39.905Z,113.00
2022-11-05T22:45:11.813Z,114.80
2022-11-05T22:46:43.656Z,100.20
2022-11-05T22:48:15.823Z,94.50
2022-11-05T22:49:49.476Z,107.00
2022-11-05T22:51:22.740Z,104.20
2022-11-05T22:52:54.582Z,106.60
2022-11-05T22:54:26.436Z,101.60
2022-11-05T22:55:58.289Z,103.20
2022-11-05T22:57:30.002Z,106.80
2022-11-05T22:59:01.977Z,116.80
2022-11-05T23:00:35.829Z,112.40
2022-11-05T23:02:09.983Z,105.60
2022-11-05T23:03:43.088Z,108.80
2022-11-05T23:05:15.890Z,111.00
2022-11-05T23:07:06.416Z,107.60
2022-11-05T23:08:57.127Z,106.00
2022-11-05T23:10:47.247Z,95.00
2022-11-05T23:12:22.421Z,109.20
2022-11-05T23:13:55.978Z,105.40
2022-11-05T23:15:46.376Z,108.40
2022-11-05T23:17:36.514Z,114.20
2022-11-05T23:19:27.791Z,115.00
2022-11-05T23:21:21.964Z,121.80
2022-11-05T23:23:13.299Z,120.00
2022-11-05T23:24:44.919Z,110.00
2022-11-05T23:26:35.328Z,111.40
2022-11-05T23:28:08.057Z,117.40
2022-11-05T23:29:39.805Z,110.00
2022-11-05T23:31:30.348Z,110.00
2022-11-05T23:33:02.080Z,112.00
2022-11-05T23:34:33.724Z,110.80
